createdAt,value
2022-09-03T00:01:01.762Z,13.93
2022-09-03T00:11:10.437Z,12.63
2022-09-03T00:21:18.896Z,12.70
2022-09-03T00:31:25.161Z,15.48
2022-09-03T00:41:35.233Z,13.38
2022-09-03T00:51:44.888Z,14.43
2022-09-03T01:01:55.547Z,15.52
2022-09-03T01:12:03.515Z,16.08
2022-09-03T01:22:31.626Z,15.20
2022-09-03T01:32:42.190Z,14.55
2022-09-03T01:42:59.715Z,15.57
2022-09-03T01:53:13.401Z,14.93
2022-09-03T02:03:16.217Z,19.92
2022-09-03T02:13:22.861Z,16.15
2022-09-03T02:23:27.834Z,18.65
2022-09-03T02:33:35.963Z,20.25
2022-09-03T02:43:42.027Z,20.33
2022-09-03T02:53:46.009Z,19.92
2022-09-03T03:03:48.193Z,18.60
2022-09-03T03:13:51.982Z,19.70
2022-09-03T03:23:53.933Z,20.95
2022-09-03T03:33:59.106Z,21.67
2022-09-03T03:44:02.938Z,25.58
2022-09-03T03:54:06.501Z,23.58
2022-09-03T04:04:08.580Z,26.02
2022-09-03T04:14:11.977Z,26.13
2022-09-03T04:24:14.070Z,26.38
2022-09-03T04:34:17.379Z,27.70
2022-09-03T04:44:19.442Z,32.58
2022-09-03T04:54:22.873Z,32.80
2022-09-03T05:04:30.042Z,31.63
2022-09-03T05:14:33.448Z,27.60
2022-09-03T05:24:35.466Z,31.25
2022-09-03T05:34:38.878Z,35.03
2022-09-03T05:44:40.917Z,29.35
2022-09-03T05:54:44.260Z,33.47
2022-09-03T06:04:46.197Z,32.80
2022-09-03T06:14:49.553Z,29.55
2022-09-03T06:24:51.673Z,27.00
2022-09-03T06:34:54.972Z,33.17
2022-09-03T06:44:56.949Z,32.53
2022-09-03T06:55:00.280Z,29.77
2022-09-03T07:05:02.240Z,29.77
2022-09-03T07:15:06.224Z,25.23
2022-09-03T07:25:09.178Z,22.40
2022-09-03T07:35:12.713Z,17.58
2022-09-03T07:45:14.764Z,14.00
2022-09-03T07:55:18.108Z,13.82
2022-09-03T08:05:20.214Z,15.95
2022-09-03T08:15:23.528Z,13.88
2022-09-03T08:25:25.509Z,11.00
2022-09-03T08:35:28.787Z,11.30
2022-09-03T08:45:34.017Z,13.20
2022-09-03T08:55:42.513Z,11.23
2022-09-03T09:05:51.226Z,8.80
2022-09-03T09:16:06.154Z,7.18
2022-09-03T09:26:12.774Z,7.22
2022-09-03T09:36:17.854Z,7.32
2022-09-03T09:46:22.573Z,7.35
2022-09-03T09:56:26.565Z,5.00
2022-09-03T10:06:31.743Z,6.43
2022-09-03T10:16:40.275Z,5.30
2022-09-03T10:26:42.938Z,7.07
2022-09-03T10:36:53.154Z,6.43
2022-09-03T10:47:03.775Z,4.10
2022-09-03T10:57:16.523Z,3.60
2022-09-03T11:07:22.695Z,3.22
2022-09-03T11:17:30.265Z,2.25
2022-09-03T11:27:54.610Z,2.88
2022-09-03T11:38:02.125Z,3.85
2022-09-03T11:48:18.103Z,3.13
2022-09-03T11:58:25.334Z,2.72
2022-09-03T12:08:47.621Z,3.00
2022-09-03T12:18:51.150Z,2.65
2022-09-03T12:28:55.337Z,3.20
2022-09-03T12:39:11.993Z,2.60
2022-09-03T12:49:32.125Z,2.65
2022-09-03T12:59:38.472Z,2.05
2022-09-03T13:09:42.110Z,1.98
2022-09-03T13:20:17.402Z,2.28
2022-09-03T13:30:21.291Z,2.70
2022-09-03T13:40:27.873Z,2.65
2022-09-03T13:50:39.146Z,2.78
2022-09-03T14:00:50.596Z,2.78
2022-09-03T14:11:04.453Z,2.80
2022-09-03T14:21:31.804Z,3.60
2022-09-03T14:32:07.001Z,4.00
2022-09-03T14:42:40.427Z,3.83
2022-09-03T14:53:35.620Z,3.65
2022-09-03T15:04:12.678Z,2.80
2022-09-03T15:14:19.830Z,3.58
2022-09-03T15:24:48.829Z,3.03
2022-09-03T15:35:04.245Z,4.30
2022-09-03T15:45:20.117Z,3.63
2022-09-03T15:55:29.779Z,5.13
2022-09-03T16:05:41.423Z,4.43
2022-09-03T16:15:49.802Z,4.85
2022-09-03T16:25:57.011Z,4.47
2022-09-03T16:36:08.433Z,5.00
2022-09-03T16:46:22.785Z,5.30
2022-09-03T16:56:44.357Z,4.65
2022-09-03T17:08:01.163Z,5.07
2022-09-03T17:17:56.797Z,5.07
2022-09-03T17:28:17.239Z,4.68
2022-09-03T17:38:39.304Z,4.70
2022-09-03T17:48:52.744Z,6.10
2022-09-03T17:59:05.036Z,5.90
2022-09-03T18:09:18.344Z,8.27
2022-09-03T18:19:31.410Z,6.82
2022-09-03T18:29:43.730Z,8.20
2022-09-03T18:39:46.076Z,6.10
2022-09-03T18:49:58.497Z,6.65
2022-09-03T19:00:08.065Z,6.65
2022-09-03T19:10:18.139Z,7.13
2022-09-03T19:20:28.713Z,6.60
2022-09-03T19:30:39.013Z,7.10
2022-09-03T19:40:57.397Z,7.70
2022-09-03T19:51:06.383Z,7.47
2022-09-03T20:01:09.475Z,8.18
2022-09-03T20:11:21.180Z,7.47
2022-09-03T20:21:30.496Z,7.28
2022-09-03T20:31:48.122Z,8.15
2022-09-03T20:42:00.121Z,7.53
2022-09-03T20:52:10.267Z,8.05
2022-09-03T21:02:21.520Z,6.47
2022-09-03T21:12:34.714Z,7.65
2022-09-03T21:22:43.726Z,7.57
2022-09-03T21:32:52.279Z,7.55
2022-09-03T21:43:02.134Z,7.30
2022-09-03T21:53:11.313Z,8.93
2022-09-03T22:03:13.304Z,7.63
2022-09-03T22:13:26.960Z,8.02
2022-09-03T22:23:37.239Z,8.57
2022-09-03T22:33:50.210Z,7.70
2022-09-03T22:44:02.198Z,8.20
2022-09-03T22:54:20.979Z,9.60
2022-09-03T23:04:29.901Z,8.10
2022-09-03T23:14:37.965Z,9.37
2022-09-03T23:24:44.764Z,8.25
2022-09-03T23:34:48.137Z,11.55
2022-09-03T23:45:10.158Z,9.52
2022-09-03T23:55:27.870Z,9.73
